Nassauborg — PHDU — position and weather

sailwx.info

Track history (hours):
 
Tides and Currents Weather Stations Pressure Air Temp Water Temp Dewpoint Dewpoint Depression Visibility Wind Speed Wind Dir Waves Ship Positions

Nassauborg

Ship's website: http://www.wagenborg.com/index.cfm?pid=37&itemid=158&contentitemid=236

Last reported at 2014-Oct-23 18:26 UTC. Time now 2014-Oct-25 17:36 UTC.
Position N 59°33' E 021°13'.

Length 143 m; beam 22 m.

Type: Cargo ship. MMSI: 246430000.

Date/timePositionNaut miles runAvg speedWind from/ knotsBaromVisibWave heightAir tempDewpointWater temp
2014-Oct-23 18:26N 59°33' E 021°13'1011.0
2014-Oct-23 17:33N 59°32' E 021°32'4911.1
2014-Oct-23 13:10N 59°37' E 023°08'711.2
2014-Oct-23 12:31N 59°39' E 023°21'1111.2
2014-Oct-23 11:33N 59°42' E 023°42'8011.1
2014-Oct-23 04:19N 59°59' E 026°18'811.0
2014-Oct-23 03:33N 60°01' E 026°35'1111.0
2014-Oct-23 02:33N 59°60' E 026°56'1110.4
2014-Oct-23 01:32N 60°03' E 027°17'  
2014-Oct-20 18:33N 59°59' E 026°36'5310.5
2014-Oct-20 13:33N 59°46' E 024°55'1111.4
2014-Oct-20 12:33N 59°44' E 024°33'3911.5
2014-Oct-20 09:08N 59°32' E 023°18'19611.8
2014-Oct-19 16:32N 58°37' E 017°13'4 2.1
2014-Oct-19 14:32N 58°40' E 017°07'0 0.0
2014-Oct-19 10:10N 58°40' E 017°07'0 0.0
2014-Oct-19 09:33N 58°40' E 017°07'0 0.0
2014-Oct-19 08:19N 58°40' E 017°07'0 0.0
2014-Oct-19 06:31N 58°40' E 017°07'0 0.0
2014-Oct-19 05:25N 58°40' E 017°07'1 0.0
2014-Oct-18 09:33N 58°39' E 017°08'  
2014-Oct-13 19:31N 58°37' E 017°14'  
Track history (hours):
 
Tides and Currents Weather Stations Pressure Air Temp Water Temp Dewpoint Dewpoint Depression Visibility Wind Speed Wind Dir Waves Ship Positions

Nassauborg

Ship's website: http://www.wagenborg.com/index.cfm?pid=37&itemid=158&contentitemid=236

Last reported at 2014-Oct-23 18:26 UTC. Time now 2014-Oct-25 17:36 UTC.
Position N 59°33' E 021°13'.

Length 143 m; beam 22 m.

Type: Cargo ship. MMSI: 246430000.

Date/timePositionNaut miles runAvg speedWind from/ knotsBaromVisibWave heightAir tempDewpointWater temp
2014-Oct-23 18:26N 59°33' E 021°13'1011.0
2014-Oct-23 17:33N 59°32' E 021°32'4911.1
2014-Oct-23 13:10N 59°37' E 023°08'711.2
2014-Oct-23 12:31N 59°39' E 023°21'1111.2
2014-Oct-23 11:33N 59°42' E 023°42'8011.1
2014-Oct-23 04:19N 59°59' E 026°18'811.0
2014-Oct-23 03:33N 60°01' E 026°35'1111.0
2014-Oct-23 02:33N 59°60' E 026°56'1110.4
2014-Oct-23 01:32N 60°03' E 027°17'  
2014-Oct-20 18:33N 59°59' E 026°36'5310.5
2014-Oct-20 13:33N 59°46' E 024°55'1111.4
2014-Oct-20 12:33N 59°44' E 024°33'3911.5
2014-Oct-20 09:08N 59°32' E 023°18'19611.8
2014-Oct-19 16:32N 58°37' E 017°13'4 2.1
2014-Oct-19 14:32N 58°40' E 017°07'0 0.0
2014-Oct-19 10:10N 58°40' E 017°07'0 0.0
2014-Oct-19 09:33N 58°40' E 017°07'0 0.0
2014-Oct-19 08:19N 58°40' E 017°07'0 0.0
2014-Oct-19 06:31N 58°40' E 017°07'0 0.0
2014-Oct-19 05:25N 58°40' E 017°07'1 0.0
2014-Oct-18 09:33N 58°39' E 017°08'  
2014-Oct-13 19:31N 58°37' E 017°14'  

Dump ship's entire track history